Time;durP1;ratioP1;P1;durP2;ratioP2;P2;SDS_P1;SDS_P2;PMS_P1;PMS_P2;Temp;Humidity;BMP_temperature;BMP_pressure;BME280_temperature;BME280_humidity;BME280_pressure;Samples;Min_cycle;Max_cycle;Signal;HPM_P1;HPM_P2
2022/10/02 00:00:54;;;;;;;16.55;3.65;;;;;;;11.02;100.00;100312.28;5095315;29;20035;-73
2022/10/02 00:03:28;;;;;;;18.42;3.22;;;;;;;11.08;100.00;100318.94;5154090;28;20454;-74
2022/10/02 00:06:04;;;;;;;13.98;3.17;;;;;;;11.09;100.00;100315.41;5199570;28;20092;-74
2022/10/02 00:08:40;;;;;;;14.23;2.80;;;;;;;11.15;100.00;100312.56;5199395;28;20029;-73
2022/10/02 00:11:23;;;;;;;12.27;3.03;;;;;;;11.17;100.00;100315.09;5200109;28;20021;-74
2022/10/02 00:14:01;;;;;;;13.95;3.97;;;;;;;11.11;100.00;100318.81;5199926;28;20120;-73
2022/10/02 00:16:45;;;;;;;16.60;3.50;;;;;;;11.17;100.00;100323.78;5198733;28;20029;-73
2022/10/02 00:19:17;;;;;;;14.35;3.35;;;;;;;11.15;100.00;100328.25;5196255;28;20029;-73
2022/10/02 00:22:15;;;;;;;13.18;3.20;;;;;;;11.16;100.00;100331.69;5199788;28;20080;-73
2022/10/02 00:25:04;;;;;;;11.68;2.60;;;;;;;11.22;100.00;100336.66;5196541;28;20068;-73
2022/10/02 00:28:11;;;;;;;14.57;2.97;;;;;;;11.18;100.00;100333.34;5198830;28;20021;-73
2022/10/02 00:31:15;;;;;;;13.63;3.53;;;;;;;11.29;100.00;100341.56;5182405;28;20045;-73
2022/10/02 00:34:20;;;;;;;11.60;3.13;;;;;;;11.28;100.00;100325.97;5199606;28;20030;-73
2022/10/02 00:37:08;;;;;;;15.27;3.60;;;;;;;11.33;100.00;100332.69;5181592;28;20251;-73
2022/10/02 00:39:54;;;;;;;12.73;2.80;;;;;;;11.44;100.00;100327.84;5199728;28;20479;-74
2022/10/02 00:42:47;;;;;;;13.27;2.83;;;;;;;11.50;100.00;100330.22;5192126;28;20041;-74
2022/10/02 00:45:26;;;;;;;15.95;2.95;;;;;;;11.60;100.00;100335.94;5197951;28;20220;-73
2022/10/02 00:48:06;;;;;;;12.63;2.50;;;;;;;11.71;100.00;100345.00;5202061;28;20556;-73
2022/10/02 00:50:43;;;;;;;9.48;2.30;;;;;;;11.74;100.00;100350.09;5203630;28;20154;-73
2022/10/02 00:53:45;;;;;;;12.88;3.00;;;;;;;11.67;100.00;100337.34;5198692;28;20045;-73
2022/10/02 00:56:40;;;;;;;9.57;3.13;;;;;;;11.62;100.00;100336.72;5193341;28;20025;-73
2022/10/02 00:59:40;;;;;;;14.85;3.10;;;;;;;11.68;100.00;100333.81;5199051;28;20108;-73
2022/10/02 01:02:29;;;;;;;14.63;3.30;;;;;;;11.72;100.00;100332.75;5198073;28;20611;-73
2022/10/02 01:05:03;;;;;;;12.32;2.45;;;;;;;11.66;100.00;100343.50;5203037;28;20510;-73
2022/10/02 01:07:37;;;;;;;11.73;2.85;;;;;;;11.67;100.00;100350.44;5202354;28;20534;-73
2022/10/02 01:10:10;;;;;;;10.57;2.80;;;;;;;11.66;100.00;100336.53;5202357;28;20029;-72
2022/10/02 01:12:41;;;;;;;10.13;2.78;;;;;;;11.68;100.00;100329.44;5202716;28;20114;-74
2022/10/02 01:15:20;;;;;;;10.48;3.33;;;;;;;11.62;100.00;100340.16;5201894;28;20490;-74
2022/10/02 01:17:51;;;;;;;13.20;3.13;;;;;;;11.74;100.00;100331.78;5202533;28;20025;-73
2022/10/02 01:20:41;;;;;;;10.93;2.90;;;;;;;11.61;100.00;100332.41;5202010;28;20168;-73
2022/10/02 01:23:23;;;;;;;13.32;3.42;;;;;;;11.63;100.00;100339.25;5202756;28;20099;-73
2022/10/02 01:25:53;;;;;;;11.10;2.90;;;;;;;11.57;100.00;100336.91;5202519;28;20030;-73
2022/10/02 01:28:24;;;;;;;11.38;2.72;;;;;;;11.58;100.00;100356.91;5201636;28;20040;-73
2022/10/02 01:31:01;;;;;;;11.98;2.80;;;;;;;11.62;100.00;100363.72;5202139;28;20322;-73
2022/10/02 01:33:32;;;;;;;12.15;2.65;;;;;;;11.71;100.00;100389.50;5202468;28;20577;-73
2022/10/02 01:36:03;;;;;;;11.70;2.05;;;;;;;11.86;100.00;100380.13;5202111;28;20026;-73
2022/10/02 01:38:35;;;;;;;10.15;2.10;;;;;;;11.85;100.00;100386.28;5201950;28;20021;-74
2022/10/02 01:41:06;;;;;;;11.25;1.75;;;;;;;11.74;100.00;100373.66;5201651;28;20479;-73
2022/10/02 01:43:41;;;;;;;7.40;1.73;;;;;;;11.72;100.00;100362.41;5201223;28;20029;-73
2022/10/02 01:46:21;;;;;;;10.67;1.70;;;;;;;11.58;100.00;100374.41;5201368;28;20048;-72
2022/10/02 01:49:27;;;;;;;8.25;2.15;;;;;;;11.51;100.00;100363.31;5201790;28;20025;-73
2022/10/02 01:52:21;;;;;;;7.93;2.40;;;;;;;11.48;100.00;100375.66;5200700;28;20029;-74
2022/10/02 01:55:16;;;;;;;10.00;1.98;;;;;;;11.37;100.00;100373.50;5167767;28;20129;-74
2022/10/02 01:58:04;;;;;;;8.75;1.88;;;;;;;11.37;100.00;100373.50;5199822;28;20028;-73
2022/10/02 02:00:51;;;;;;;6.72;1.52;;;;;;;11.29;100.00;100378.19;5201507;28;20061;-73
2022/10/02 02:03:45;;;;;;;6.10;1.52;;;;;;;11.23;100.00;100375.84;5201692;28;20037;-73
2022/10/02 02:06:33;;;;;;;8.60;1.60;;;;;;;11.23;100.00;100386.31;5196832;28;20041;-73
2022/10/02 02:09:17;;;;;;;6.32;1.48;;;;;;;11.19;100.00;100382.13;5201578;28;20510;-73
2022/10/02 02:11:57;;;;;;;7.65;1.40;;;;;;;11.19;100.00;100384.75;5198572;28;20495;-73
2022/10/02 02:14:35;;;;;;;9.65;1.60;;;;;;;11.15;100.00;100393.63;5200304;28;20097;-73
2022/10/02 02:17:31;;;;;;;7.55;1.70;;;;;;;11.11;100.00;100394.66;5200686;28;20060;-73
2022/10/02 02:20:07;;;;;;;10.07;1.57;;;;;;;11.06;100.00;100388.75;5200768;28;20091;-73
2022/10/02 02:22:47;;;;;;;7.57;1.77;;;;;;;11.02;100.00;100389.81;5201472;28;20021;-73
2022/10/02 02:25:21;;;;;;;8.93;1.58;;;;;;;10.98;100.00;100389.97;5200820;28;20475;-73
2022/10/02 02:28:05;;;;;;;11.95;1.92;;;;;;;10.91;100.00;100388.53;5200386;28;20028;-73
2022/10/02 02:30:39;;;;;;;10.98;1.90;;;;;;;10.88;100.00;100391.25;5201800;28;20463;-73
2022/10/02 02:33:35;;;;;;;7.32;1.75;;;;;;;10.89;100.00;100382.50;5200861;28;20526;-73
2022/10/02 02:36:13;;;;;;;9.48;1.70;;;;;;;10.89;100.00;100386.88;5200918;28;20036;-73
2022/10/02 02:38:48;;;;;;;5.75;1.35;;;;;;;10.87;100.00;100381.69;5196840;28;20507;-73
2022/10/02 02:41:26;;;;;;;17.30;2.17;;;;;;;10.88;100.00;100382.56;5201116;28;20025;-73
2022/10/02 02:44:02;;;;;;;8.63;1.75;;;;;;;11.01;100.00;100373.31;5200563;28;20021;-73
2022/10/02 02:47:02;;;;;;;11.48;2.13;;;;;;;11.05;100.00;100376.59;5199650;28;20032;-73
2022/10/02 02:49:55;;;;;;;16.50;2.50;;;;;;;11.14;100.00;100376.19;5199681;28;20579;-73
2022/10/02 02:52:41;;;;;;;12.32;2.53;;;;;;;11.12;100.00;100377.19;5167217;28;20133;-73
2022/10/02 02:55:14;;;;;;;12.13;2.63;;;;;;;11.11;100.00;100373.72;5201175;28;20053;-73
2022/10/02 02:57:50;;;;;;;20.00;3.30;;;;;;;11.12;100.00;100378.03;5199109;28;20155;-73
2022/10/02 03:00:21;;;;;;;15.40;2.90;;;;;;;11.13;100.00;100374.50;5199722;28;20037;-74
2022/10/02 03:02:53;;;;;;;14.77;2.95;;;;;;;11.11;100.00;100381.56;5200990;28;20360;-74
2022/10/02 03:05:25;;;;;;;23.30;3.40;;;;;;;11.15;100.00;100380.56;5200450;28;20025;-73
2022/10/02 03:08:12;;;;;;;20.00;4.10;;;;;;;11.09;100.00;100372.94;5200432;28;20029;-73
2022/10/02 03:11:16;;;;;;;19.88;4.00;;;;;;;11.04;100.00;100380.13;5200625;28;20074;-73
2022/10/02 03:14:01;;;;;;;14.05;3.45;;;;;;;11.04;100.00;100374.91;5196685;28;20316;-72
2022/10/02 03:16:59;;;;;;;18.60;4.10;;;;;;;11.02;100.00;100381.97;5199540;28;20035;-73
2022/10/02 03:20:00;;;;;;;18.83;4.03;;;;;;;11.07;100.00;100381.78;5199624;28;20075;-74
2022/10/02 03:22:42;;;;;;;20.98;3.95;;;;;;;11.07;100.00;100384.41;5199798;28;20458;-73
2022/10/02 03:25:30;;;;;;;21.73;4.15;;;;;;;11.06;100.00;100385.28;5200325;28;20025;-74
2022/10/02 03:28:10;;;;;;;22.95;4.57;;;;;;;11.03;100.00;100388.03;5198804;28;20032;-74
2022/10/02 03:30:42;;;;;;;18.10;3.90;;;;;;;11.07;100.00;100393.06;5182217;28;20499;-73
2022/10/02 03:33:15;;;;;;;16.17;3.40;;;;;;;11.12;100.00;100385.88;5200208;28;20053;-73
2022/10/02 03:35:46;;;;;;;17.85;3.50;;;;;;;11.19;100.00;100394.34;5200217;28;20177;-73
2022/10/02 03:38:18;;;;;;;13.52;3.78;;;;;;;11.15;100.00;100392.75;5199413;28;20376;-73
2022/10/02 03:40:51;;;;;;;17.55;3.83;;;;;;;11.14;100.00;100391.91;5182557;28;20033;-73
2022/10/02 03:43:24;;;;;;;15.82;3.83;;;;;;;11.16;100.00;100387.47;5200373;28;20032;-74
2022/10/02 03:45:55;;;;;;;13.55;3.67;;;;;;;11.21;100.00;100396.00;5200083;28;20039;-73
2022/10/02 03:48:25;;;;;;;19.30;4.53;;;;;;;11.25;100.00;100392.31;5199475;28;20030;-73
2022/10/02 03:50:57;;;;;;;18.30;3.95;;;;;;;11.27;100.00;100387.88;5199749;28;20036;-74
2022/10/02 03:53:33;;;;;;;18.25;4.22;;;;;;;11.25;100.00;100394.09;5198744;28;20059;-74
2022/10/02 03:56:08;;;;;;;15.23;4.78;;;;;;;11.30;100.00;100392.97;5182202;28;20036;-73
2022/10/02 03:58:44;;;;;;;19.65;4.70;;;;;;;11.36;100.00;100387.50;5199469;28;20061;-73
2022/10/02 04:01:25;;;;;;;16.52;4.55;;;;;;;11.36;100.00;100400.59;5199752;28;20122;-73
2022/10/02 04:04:04;;;;;;;23.45;5.65;;;;;;;11.35;100.00;100396.28;5200326;28;20021;-73
2022/10/02 04:06:46;;;;;;;22.15;5.25;;;;;;;11.38;100.00;100396.13;5199730;28;20486;-73
2022/10/02 04:09:37;;;;;;;21.33;4.90;;;;;;;11.35;100.00;100393.66;5196981;28;20041;-73
2022/10/02 04:12:18;;;;;;;18.83;5.40;;;;;;;11.39;100.00;100391.75;5199452;28;20546;-73
2022/10/02 04:14:54;;;;;;;21.27;5.55;;;;;;;11.42;100.00;100396.88;5198024;28;20059;-73
2022/10/02 04:17:32;;;;;;;21.42;5.32;;;;;;;11.51;100.00;100394.72;5203213;28;20037;-73
2022/10/02 04:20:09;;;;;;;22.05;5.70;;;;;;;11.47;100.00;100397.53;5204055;28;20736;-73
2022/10/02 04:23:16;;;;;;;22.05;5.50;;;;;;;11.45;100.00;100397.56;5198123;28;20076;-73
2022/10/02 04:25:51;;;;;;;21.55;5.40;;;;;;;11.50;100.00;100400.88;5185271;28;20067;-73
2022/10/02 04:28:29;;;;;;;22.47;5.53;;;;;;;11.59;100.00;100397.06;5202823;28;20053;-73
2022/10/02 04:31:01;;;;;;;23.27;5.88;;;;;;;11.63;100.00;100407.28;5202650;28;20332;-73
2022/10/02 04:33:31;;;;;;;22.67;5.45;;;;;;;11.70;100.00;100393.06;5202961;28;20036;-73
2022/10/02 04:36:29;;;;;;;20.00;5.53;;;;;;;11.76;100.00;100397.19;5203879;28;20491;-73
2022/10/02 04:39:07;;;;;;;24.95;4.90;;;;;;;11.85;100.00;100394.16;5202264;28;20032;-73
2022/10/02 04:42:14;;;;;;;19.73;5.22;;;;;;;11.89;100.00;100370.38;5185776;28;20021;-73
2022/10/02 04:44:50;;;;;;;;;;;;;;;11.96;100.00;100369.19;5159191;28;20064;-73
2022/10/02 04:47:39;;;;;;;30.40;7.15;;;;;;;11.98;100.00;100376.97;5203014;28;19919;-73
2022/10/02 04:50:21;;;;;;;24.55;6.13;;;;;;;11.93;100.00;100386.81;5203274;28;20025;-73
2022/10/02 04:52:57;;;;;;;21.90;6.13;;;;;;;11.91;100.00;100384.25;5202762;28;20068;-73
2022/10/02 04:55:50;;;;;;;20.00;6.18;;;;;;;11.91;100.00;100397.34;5203112;28;20570;-73
2022/10/02 04:58:42;;;;;;;19.13;6.00;;;;;;;11.93;100.00;100398.13;5200855;28;20479;-73
2022/10/02 05:01:41;;;;;;;27.17;6.45;;;;;;;11.93;100.00;100394.69;5198163;28;20055;-73
2022/10/02 05:04:34;;;;;;;21.98;6.90;;;;;;;11.95;100.00;100404.16;5202970;28;20411;-73
2022/10/02 05:07:17;;;;;;;16.80;6.55;;;;;;;11.98;100.00;100396.16;5194623;28;20128;-73
2022/10/02 05:09:47;;;;;;;24.45;7.88;;;;;;;11.86;100.00;100396.72;5200092;28;20033;-73
2022/10/02 05:12:31;;;;;;;24.53;7.30;;;;;;;11.85;100.00;100400.25;5202784;28;20170;-73
2022/10/02 05:15:20;;;;;;;25.67;7.40;;;;;;;11.81;100.00;100398.66;5202295;28;20276;-73
2022/10/02 05:18:06;;;;;;;27.60;8.27;;;;;;;11.79;100.00;100407.50;5200012;28;20068;-73
2022/10/02 05:20:55;;;;;;;;;;;;;;;11.74;100.00;100415.56;5203074;28;20461;-73
2022/10/02 05:23:37;;;;;;;23.67;7.43;;;;;;;11.81;100.00;100406.50;5201366;28;19916;-73
2022/10/02 05:26:07;;;;;;;32.20;8.10;;;;;;;11.77;100.00;100399.72;5197915;28;20493;-73
2022/10/02 05:29:02;;;;;;;21.67;7.20;;;;;;;11.80;100.00;100409.22;5201788;28;20029;-73
2022/10/02 05:31:41;;;;;;;24.27;7.05;;;;;;;11.86;100.00;100412.41;5202362;28;20351;-74
2022/10/02 05:34:59;;;;;;;23.70;7.30;;;;;;;11.91;100.00;100418.31;5199415;28;20564;-73
2022/10/02 05:37:47;;;;;;;22.42;7.00;;;;;;;12.03;100.00;100420.41;5127235;28;20283;-73
2022/10/02 05:40:40;;;;;;;21.42;6.47;;;;;;;12.04;100.00;100423.84;5199412;28;20022;-73
2022/10/02 05:43:48;;;;;;;21.55;6.57;;;;;;;12.06;100.00;100430.72;5201746;28;20506;-73
2022/10/02 05:46:27;;;;;;;25.98;6.65;;;;;;;12.12;100.00;100435.69;5202752;28;20076;-73
2022/10/02 05:49:04;;;;;;;22.63;6.90;;;;;;;12.13;100.00;100434.78;5203245;28;20029;-73
2022/10/02 05:51:56;;;;;;;27.30;9.43;;;;;;;12.14;100.00;100453.97;5203045;28;20036;-72
2022/10/02 05:54:35;;;;;;;27.73;7.20;;;;;;;12.15;100.00;100453.88;5200623;28;20033;-73
2022/10/02 05:57:15;;;;;;;20.02;6.25;;;;;;;12.08;100.00;100455.09;5201234;28;20037;-73
2022/10/02 06:00:16;;;;;;;18.98;5.30;;;;;;;12.03;100.00;100449.22;5201821;28;20029;-73
2022/10/02 06:03:11;;;;;;;16.35;5.30;;;;;;;12.01;100.00;100451.03;5197744;28;20021;-73
2022/10/02 06:05:54;;;;;;;17.70;5.05;;;;;;;11.96;100.00;100447.75;5198354;28;20029;-73
2022/10/02 06:08:40;;;;;;;19.90;5.20;;;;;;;11.93;100.00;100453.13;5201199;28;20525;-73
2022/10/02 06:11:25;;;;;;;15.00;5.38;;;;;;;11.90;100.00;100440.16;5201819;28;20030;-74
2022/10/02 06:14:18;;;;;;;19.38;6.32;;;;;;;11.93;100.00;100426.09;5201414;28;20360;-73
2022/10/02 06:17:02;;;;;;;20.55;6.25;;;;;;;12.04;100.00;100453.53;5198786;28;20043;-73
2022/10/02 06:19:42;;;;;;;22.65;8.98;;;;;;;12.11;100.00;100452.31;5200446;28;20029;-72
2022/10/02 06:22:18;;;;;;;43.35;17.90;;;;;;;12.14;100.00;100440.88;5201535;28;20028;-73
2022/10/02 06:25:11;;;;;;;33.90;14.10;;;;;;;12.01;100.00;100448.44;5201374;28;20029;-73
2022/10/02 06:28:05;;;;;;;36.85;14.98;;;;;;;11.98;100.00;100456.38;5198907;28;20526;-73
2022/10/02 06:30:40;;;;;;;22.65;6.95;;;;;;;12.04;100.00;100450.91;5200204;28;20067;-73
2022/10/02 06:33:21;;;;;;;24.00;5.95;;;;;;;12.01;100.00;100458.03;5200632;28;20060;-73
2022/10/02 06:36:07;;;;;;;17.77;6.05;;;;;;;12.06;100.00;100459.53;5182520;28;20099;-73
2022/10/02 06:38:44;;;;;;;14.43;5.65;;;;;;;12.09;100.00;100459.41;5199629;28;20032;-73
2022/10/02 06:41:36;;;;;;;24.20;6.13;;;;;;;12.25;100.00;100455.19;5196602;28;20029;-73
2022/10/02 06:44:48;;;;;;;22.10;6.20;;;;;;;12.41;100.00;100460.59;5199671;28;20040;-71
2022/10/02 06:48:00;;;;;;;24.98;7.32;;;;;;;12.50;100.00;100455.78;5115448;29;20231;-73
2022/10/02 06:50:43;;;;;;;20.50;6.53;;;;;;;12.77;100.00;100453.72;5135513;28;20413;-73
2022/10/02 06:53:45;;;;;;;19.63;6.63;;;;;;;12.62;100.00;100460.47;5134225;28;20034;-73
2022/10/02 06:56:28;;;;;;;17.67;5.60;;;;;;;12.59;100.00;100458.00;5188147;28;20533;-73
2022/10/02 06:59:08;;;;;;;19.50;6.32;;;;;;;12.74;100.00;100461.69;5182816;28;20041;-72
2022/10/02 07:01:55;;;;;;;20.42;6.45;;;;;;;13.01;100.00;100459.53;5199533;28;20040;-72
2022/10/02 07:04:52;;;;;;;19.58;6.00;;;;;;;13.47;100.00;100452.91;5198254;28;20052;-72
2022/10/02 07:07:46;;;;;;;19.08;6.40;;;;;;;13.57;100.00;100462.03;5198903;28;20060;-73
2022/10/02 07:10:32;;;;;;;18.55;6.40;;;;;;;13.70;100.00;100458.72;5200185;28;20029;-73
2022/10/02 07:13:24;;;;;;;24.27;7.30;;;;;;;14.09;100.00;100447.97;5199297;28;20084;-73
2022/10/02 07:16:08;;;;;;;22.42;7.82;;;;;;;13.84;100.00;100458.88;5200406;28;20498;-73
2022/10/02 07:18:55;;;;;;;23.65;7.00;;;;;;;14.42;100.00;100462.84;5199634;28;20478;-72
2022/10/02 07:21:43;;;;;;;19.65;6.50;;;;;;;14.98;100.00;100448.31;5198216;28;20033;-73
2022/10/02 07:24:45;;;;;;;19.02;6.35;;;;;;;15.22;100.00;100449.56;5200165;28;20495;-71
2022/10/02 07:27:26;;;;;;;18.33;6.20;;;;;;;15.05;100.00;100454.94;5197416;28;20098;-73
2022/10/02 07:30:10;;;;;;;23.38;5.85;;;;;;;16.25;100.00;100450.47;5197930;28;20127;-73
2022/10/02 07:33:18;;;;;;;15.13;5.05;;;;;;;16.48;100.00;100460.53;5199722;28;20109;-73
2022/10/02 07:35:57;;;;;;;12.60;4.63;;;;;;;16.06;100.00;100473.63;5181959;28;20257;-73
2022/10/02 07:38:56;;;;;;;13.70;4.03;;;;;;;15.72;100.00;100468.63;5198622;28;20061;-73
2022/10/02 07:41:39;;;;;;;11.52;3.80;;;;;;;17.63;96.89;100468.88;5199475;28;20491;-73
2022/10/02 07:44:37;;;;;;;16.42;3.97;;;;;;;18.26;90.27;100461.91;5199386;28;20380;-73
2022/10/02 07:47:28;;;;;;;14.23;3.75;;;;;;;19.65;85.32;100459.72;5195587;28;20410;-74
2022/10/02 07:50:26;;;;;;;12.43;3.13;;;;;;;20.33;82.67;100451.88;5202364;28;20124;-73
2022/10/02 07:53:14;;;;;;;9.25;2.90;;;;;;;21.47;79.53;100459.41;5200483;28;20033;-73
2022/10/02 07:55:52;;;;;;;10.43;2.90;;;;;;;20.31;81.03;100459.94;5199865;28;20029;-74
2022/10/02 07:58:32;;;;;;;8.10;2.75;;;;;;;19.55;81.99;100463.16;5201467;28;20075;-73
2022/10/02 08:01:11;;;;;;;14.48;3.55;;;;;;;18.78;85.93;100484.66;5203070;28;20139;-74
2022/10/02 08:03:50;;;;;;;12.38;3.08;;;;;;;18.46;87.39;100487.88;5202752;28;20407;-74
2022/10/02 08:06:21;;;;;;;13.15;3.25;;;;;;;18.12;92.18;100480.53;5202628;28;20029;-73
2022/10/02 08:09:01;;;;;;;17.45;4.05;;;;;;;17.17;96.18;100488.63;5204109;28;20310;-73
2022/10/02 08:11:47;;;;;;;9.50;3.20;;;;;;;17.16;96.19;100500.13;5203621;28;20498;-73
2022/10/02 08:14:20;;;;;;;9.95;2.83;;;;;;;16.17;100.00;100494.94;5201131;28;20494;-71
2022/10/02 08:16:52;;;;;;;11.95;2.90;;;;;;;15.91;100.00;100495.59;5201178;28;20033;-74
2022/10/02 08:20:18;;;;;;;10.30;3.13;;;;;;;15.61;100.00;100494.78;5203331;28;20040;-73
2022/10/02 08:23:23;;;;;;;12.50;3.55;;;;;;;16.78;100.00;100501.69;5166120;28;20029;-74
2022/10/02 08:25:58;;;;;;;12.25;2.90;;;;;;;17.31;97.76;100500.97;5202043;28;20530;-73
2022/10/02 08:28:56;;;;;;;14.65;3.00;;;;;;;16.85;99.39;100508.31;5196953;28;20116;-73
2022/10/02 08:31:26;;;;;;;9.23;2.55;;;;;;;16.37;100.00;100513.09;5199732;28;20116;-73
2022/10/02 08:34:04;;;;;;;13.13;3.00;;;;;;;16.65;100.00;100510.47;5201566;28;20129;-72
2022/10/02 08:36:34;;;;;;;13.82;3.33;;;;;;;16.44;100.00;100501.25;5201074;28;20025;-73
2022/10/02 08:39:23;;;;;;;15.43;3.50;;;;;;;15.74;100.00;100514.19;5202374;28;20087;-73
2022/10/02 08:42:08;;;;;;;10.90;3.47;;;;;;;15.72;100.00;100505.53;5201381;28;20502;-73
2022/10/02 08:45:14;;;;;;;14.27;3.20;;;;;;;15.60;100.00;100502.75;5202505;28;20021;-73
2022/10/02 08:48:06;;;;;;;15.95;3.10;;;;;;;16.43;100.00;100504.81;5202464;28;20072;-73
2022/10/02 08:51:04;;;;;;;14.85;3.30;;;;;;;16.67;100.00;100500.69;5200698;28;20104;-74
2022/10/02 08:53:53;;;;;;;13.35;3.35;;;;;;;18.74;92.82;100491.16;5200044;28;20522;-73
2022/10/02 08:56:47;;;;;;;11.25;2.78;;;;;;;19.22;88.01;100487.69;5180463;28;20026;-73
2022/10/02 08:59:58;;;;;;;13.07;2.70;;;;;;;19.55;86.81;100487.03;5200657;28;20026;-74
2022/10/02 09:02:53;;;;;;;14.88;3.22;;;;;;;18.39;89.47;100497.22;5201980;28;20070;-73
2022/10/02 09:05:39;;;;;;;14.45;2.85;;;;;;;18.18;91.59;100500.44;5198862;28;20032;-74
2022/10/02 09:08:39;;;;;;;12.45;3.15;;;;;;;18.12;94.73;100506.97;5195151;28;20029;-73
2022/10/02 09:11:21;;;;;;;12.48;2.97;;;;;;;18.48;94.53;100503.69;5181823;28;20030;-74
2022/10/02 09:14:08;;;;;;;9.73;2.60;;;;;;;17.92;95.18;100509.25;5197776;28;20300;-73
2022/10/02 09:17:29;;;;;;;10.95;3.10;;;;;;;17.78;96.54;100501.38;5199363;28;20075;-73
2022/10/02 09:20:12;;;;;;;16.23;2.90;;;;;;;17.75;96.92;100504.22;5183075;28;20029;-73
2022/10/02 09:23:04;;;;;;;15.23;3.63;;;;;;;17.43;98.94;100502.84;5197647;28;20032;-73
2022/10/02 09:26:02;;;;;;;11.88;3.40;;;;;;;17.31;100.00;100511.53;5201970;28;20057;-73
2022/10/02 09:29:18;;;;;;;13.52;3.58;;;;;;;17.37;99.16;100501.47;5200986;28;20083;-74
2022/10/02 09:32:25;;;;;;;11.95;3.10;;;;;;;17.58;98.48;100510.63;5202500;28;20021;-73
2022/10/02 09:35:14;;;;;;;;;;;;;;;17.55;98.64;100497.63;5139772;28;20182;-73
2022/10/02 09:38:09;;;;;;;10.07;2.97;;;;;;;17.77;98.96;100502.34;5199441;28;19917;-73
2022/10/02 09:41:06;;;;;;;15.05;3.70;;;;;;;17.78;97.16;100512.81;5197456;28;20116;-74
2022/10/02 09:44:02;;;;;;;11.95;2.42;;;;;;;17.85;94.74;100510.63;5202097;28;20075;-72
2022/10/02 09:46:54;;;;;;;11.48;2.75;;;;;;;18.12;93.82;100493.75;5200214;28;20021;-73
2022/10/02 09:49:46;;;;;;;12.65;2.85;;;;;;;18.06;93.53;100503.91;5197958;28;20130;-73
2022/10/02 09:52:41;;;;;;;9.15;2.42;;;;;;;17.78;95.30;100498.75;5197071;28;20025;-72
2022/10/02 09:55:35;;;;;;;13.32;2.60;;;;;;;17.30;95.08;100504.56;5199976;28;20053;-72
2022/10/02 09:58:44;;;;;;;10.05;2.67;;;;;;;16.97;95.45;100511.97;5199502;28;20517;-72
2022/10/02 10:01:43;;;;;;;18.25;3.30;;;;;;;17.27;95.35;100510.03;5104834;28;20167;-73
2022/10/02 10:04:35;;;;;;;10.27;2.92;;;;;;;17.31;93.54;100511.53;5196605;28;20026;-73
2022/10/02 10:07:16;;;;;;;9.88;2.00;;;;;;;17.38;91.33;100502.31;5199779;28;20479;-73
2022/10/02 10:09:57;;;;;;;17.90;2.70;;;;;;;17.36;91.64;100510.34;5198659;28;20036;-73
2022/10/02 10:12:30;;;;;;;10.60;2.30;;;;;;;17.21;90.15;100510.41;5194407;28;20034;-72
2022/10/02 10:15:39;;;;;;;11.38;2.30;;;;;;;17.35;87.99;100503.34;5200754;28;20109;-73
2022/10/02 10:18:16;;;;;;;11.00;1.85;;;;;;;17.24;88.27;100510.22;5198845;28;20488;-73
2022/10/02 10:21:06;;;;;;;9.82;1.77;;;;;;;17.19;87.46;100507.91;5200778;28;20041;-73
2022/10/02 10:23:45;;;;;;;8.80;1.70;;;;;;;17.48;89.86;100511.34;5199506;28;20029;-73
2022/10/02 10:26:33;;;;;;;15.48;2.90;;;;;;;17.62;88.49;100521.88;5184217;28;20033;-73
2022/10/02 10:29:32;;;;;;;14.35;2.08;;;;;;;17.76;89.95;100513.84;5197998;28;20298;-73
2022/10/02 10:32:15;;;;;;;9.45;1.77;;;;;;;17.70;87.83;100525.72;5197480;28;20166;-73
2022/10/02 10:34:52;;;;;;;12.88;2.13;;;;;;;17.60;87.29;100529.88;5197149;28;20064;-73
2022/10/02 10:41:00;;;;;;;10.95;2.10;;;;;;;17.59;85.02;100522.03;5200924;28;20051;-72
2022/10/02 10:44:13;;;;;;;11.10;1.90;;;;;;;17.67;84.34;100533.00;5175953;28;20049;-73
2022/10/02 10:47:07;;;;;;;11.07;1.88;;;;;;;17.58;84.41;100530.91;5198391;28;20029;-73
2022/10/02 10:50:04;;;;;;;10.98;1.88;;;;;;;17.47;83.02;100536.91;5179801;28;20440;-72
2022/10/02 10:52:53;;;;;;;8.38;2.00;;;;;;;17.53;83.13;100533.03;5198071;28;20038;-72
2022/10/02 10:55:45;;;;;;;8.45;2.33;;;;;;;17.56;83.35;100528.41;5190288;28;20051;-73
2022/10/02 10:58:46;;;;;;;9.65;2.10;;;;;;;17.58;84.26;100530.91;5188913;28;20033;-73
2022/10/02 11:01:38;;;;;;;9.35;1.80;;;;;;;17.78;81.73;100527.81;5193732;28;20044;-72
2022/10/02 11:04:54;;;;;;;9.23;1.77;;;;;;;17.77;82.68;100536.69;5197538;28;20025;-71
2022/10/02 11:08:09;;;;;;;8.13;1.80;;;;;;;17.72;82.01;100533.53;5181123;28;20392;-72
2022/10/02 11:11:00;;;;;;;7.15;1.85;;;;;;;17.68;84.33;100540.78;5178821;28;20414;-73
2022/10/02 11:13:43;;;;;;;9.50;1.80;;;;;;;17.42;79.85;100551.34;5191449;28;20034;-72
2022/10/02 11:16:32;;;;;;;10.75;1.83;;;;;;;17.19;81.18;100547.53;5192219;28;20491;-72
2022/10/02 11:19:33;;;;;;;10.52;1.90;;;;;;;16.95;82.02;100540.28;5193921;28;20021;-71
2022/10/02 11:22:21;;;;;;;7.18;2.03;;;;;;;16.89;84.39;100544.13;5193808;28;20029;-71
2022/10/02 11:25:15;;;;;;;13.25;2.42;;;;;;;16.58;83.33;100548.72;5189575;28;20041;-72
2022/10/02 11:28:01;;;;;;;5.72;1.55;;;;;;;16.59;84.84;100537.22;5192120;28;20487;-72
2022/10/02 11:30:56;;;;;;;9.05;1.70;;;;;;;16.64;83.52;100540.47;5193705;28;20508;-72
2022/10/02 11:34:04;;;;;;;11.45;1.90;;;;;;;16.71;82.49;100544.41;5194012;28;20565;-72
2022/10/02 11:36:59;;;;;;;7.70;1.73;;;;;;;16.58;82.27;100527.63;5195797;28;20136;-71
2022/10/02 11:40:06;;;;;;;8.63;1.83;;;;;;;16.68;83.85;100522.63;5196035;28;20108;-72
2022/10/02 11:42:47;;;;;;;9.40;1.85;;;;;;;16.87;82.51;100524.91;5194101;28;20030;-72
2022/10/02 11:45:42;;;;;;;8.25;1.63;;;;;;;17.11;82.30;100522.53;5192844;28;20041;-71
2022/10/02 11:48:55;;;;;;;13.98;1.98;;;;;;;17.35;82.37;100510.44;5219820;23;20046;-77
2022/10/02 11:51:28;;;;;;;11.40;1.40;;;;;;;17.52;80.11;100515.47;5207749;28;20033;-77
2022/10/02 11:54:23;;;;;;;7.97;1.60;;;;;;;17.55;79.46;100520.56;5207123;28;20033;-77
2022/10/02 11:57:09;;;;;;;8.25;1.83;;;;;;;17.69;79.48;100523.97;5210432;28;20044;-78
2022/10/02 11:59:49;;;;;;;9.60;1.77;;;;;;;17.70;78.10;100525.72;5190762;28;20033;-78
2022/10/02 12:02:31;;;;;;;7.63;1.52;;;;;;;17.52;78.88;100526.03;5204589;28;20454;-78
2022/10/02 12:05:33;;;;;;;9.57;1.52;;;;;;;17.22;77.65;100534.13;5210858;28;20516;-77
2022/10/02 12:08:19;;;;;;;5.60;1.40;;;;;;;17.31;79.20;100527.41;5193342;28;20025;-77
2022/10/02 12:11:01;;;;;;;6.22;1.40;;;;;;;17.03;79.91;100523.00;5210308;28;20021;-77
2022/10/02 12:13:58;;;;;;;9.77;1.60;;;;;;;16.94;80.54;100533.31;5213040;28;20063;-80
2022/10/02 12:16:38;;;;;;;7.70;1.92;;;;;;;17.04;80.76;100524.72;5210093;28;20028;-78
2022/10/02 12:19:29;;;;;;;11.15;1.92;;;;;;;17.21;80.70;100528.91;5207504;28;20033;-77
2022/10/02 12:28:45;;;;;;;7.40;1.52;;;;;;;17.04;82.56;100547.59;5204809;28;20043;-77
2022/10/02 12:31:28;;;;;;;7.25;1.77;;;;;;;16.92;83.66;100551.00;5208057;28;20033;-77
2022/10/02 12:34:30;;;;;;;10.10;1.73;;;;;;;16.88;85.05;100560.06;5216682;28;20071;-77
2022/10/02 12:37:20;;;;;;;8.85;1.80;;;;;;;16.83;85.10;100562.97;5195827;28;20047;-76
2022/10/02 12:40:30;;;;;;;11.80;2.08;;;;;;;16.74;86.95;100561.84;5214345;28;20454;-77
2022/10/02 12:43:03;;;;;;;13.32;1.95;;;;;;;16.63;88.39;100565.16;5203893;28;20045;-77
2022/10/02 12:45:57;;;;;;;11.73;2.10;;;;;;;16.66;89.72;100572.00;5208635;28;21288;-77
2022/10/02 12:48:58;;;;;;;7.75;1.73;;;;;;;16.40;88.89;100572.75;5218101;28;20045;-77
2022/10/02 12:52:27;;;;;;;7.97;1.55;;;;;;;16.27;88.77;100580.50;5218801;28;20035;-77
2022/10/02 12:55:25;;;;;;;6.28;1.25;;;;;;;16.02;88.14;100588.13;5151314;28;20038;-77